Asheboro, NC

2:39 PM EST on December 26, 2014 (GMT -0500)
KNCASHEB5 | Change Station
CLOSE
Current Station
Personal Weather Station
Location: Asheboro, NC
Elevation: 780 ft
Nearby Weather Stations

Elev 780 ft 35.63 °N, 79.76 °W | Updated 10 minutes ago

Clear
Clear
59.7 °F
Feels Like 59.7 °F
N
0.0
Wind Variable Wind from WSW

Today
High -- | Low -- °F
--% Chance of Precip.
Yesterday
High -- | Low -- °F
Precip. -- in
7:27 AM 5:12 PM
Waxing Crescent, 28% visible
Pressure 30.30 in
Visibility 10.0 miles
Clouds Clear
Dew Point 36 °F
Humidity 41%
Rainfall 0.01 in
Snow Depth Not available.
UV 1.4 out of 12
Pollen 1.70 out of 12
Air Quality Not available.
Flu Activity Not available.
METAR KHBI 261915Z AUTO 00000KT 10SM CLR 13/00 A3030 RMK AO2 T01300001

More Conditions Fewer Conditions

Pressure 30.30 in
Visibility 10.0 miles
Clouds Clear
Dew Point 36 °F
Humidity 41%
Rainfall 0.01 in
Snow Depth Not available.
UV 1.4 out of 12
Pollen 1.70 out of 12
Air Quality Not available.
Flu Activity Not available.
METAR KHBI 261915Z AUTO 00000KT 10SM CLR 13/00 A3030 RMK AO2 T01300001

More Conditions Fewer Conditions

10-Day Weather Forecast

Almanac

Astronomy

Dec. 26, 2014 Rise Set
Actual Time
Civil Twilight
Nautical Twilight
Astronomical Twilight
Moon
Length of Visible Light
Length of Day
Tomorrow will be .
, % of the Moon is Illuminated

Today's Extremes

State Highs State Lows

Community

WunderPhotos

Upload Photos

1,780,675 photos uploaded!

WunderBlogs® & News

Nearby

Air Quality

  Air Quality AQ Index Pollutant
Not available.

Snow Depth

Station Depth Elevation

Earthquake Activity

City Distance Mag. Time & Date
Minimum magnitude displayed is 2.5.

Coastal Water Temperatures

Place Temperature

Nearby Weather Stations